sensor_id;sensor_type;location;lat;lon;timestamp;pressure;altitude;pressure_sealevel;temperature;humidity
6778;BME280;3426;52.244;10.534;2022-12-18T00:01:04;102206.91;;;-3.73;68.02
6778;BME280;3426;52.244;10.534;2022-12-18T00:03:35;102210.53;;;-3.36;67.04
6778;BME280;3426;52.244;10.534;2022-12-18T00:06:03;102199.28;;;-3.37;66.40
6778;BME280;3426;52.244;10.534;2022-12-18T00:08:29;102198.91;;;-3.19;67.09
6778;BME280;3426;52.244;10.534;2022-12-18T00:11:03;102211.28;;;-3.09;65.96
6778;BME280;3426;52.244;10.534;2022-12-18T00:13:32;102207.69;;;-3.14;65.74
6778;BME280;3426;52.244;10.534;2022-12-18T00:16:03;102222.69;;;-3.34;66.06
6778;BME280;3426;52.244;10.534;2022-12-18T00:18:30;102227.91;;;-3.32;66.21
6778;BME280;3426;52.244;10.534;2022-12-18T00:21:02;102222.25;;;-3.79;66.52
6778;BME280;3426;52.244;10.534;2022-12-18T00:23:29;102228.63;;;-3.68;66.32
6778;BME280;3426;52.244;10.534;2022-12-18T00:26:03;102221.13;;;-3.87;66.81
6778;BME280;3426;52.244;10.534;2022-12-18T00:28:30;102232.09;;;-4.24;67.55
6778;BME280;3426;52.244;10.534;2022-12-18T00:31:05;102227.59;;;-4.30;68.43
6778;BME280;3426;52.244;10.534;2022-12-18T00:33:32;102235.44;;;-4.27;67.97
6778;BME280;3426;52.244;10.534;2022-12-18T00:36:21;102224.38;;;-4.23;67.72
6778;BME280;3426;52.244;10.534;2022-12-18T00:38:48;102233.22;;;-4.15;67.78
6778;BME280;3426;52.244;10.534;2022-12-18T00:41:16;102228.38;;;-4.04;67.75
6778;BME280;3426;52.244;10.534;2022-12-18T00:44:11;102227.63;;;-4.29;67.83
6778;BME280;3426;52.244;10.534;2022-12-18T00:46:39;102223.81;;;-4.13;67.73
6778;BME280;3426;52.244;10.534;2022-12-18T00:49:06;102232.03;;;-3.97;67.53
6778;BME280;3426;52.244;10.534;2022-12-18T00:51:32;102240.91;;;-4.18;67.68
6778;BME280;3426;52.244;10.534;2022-12-18T00:53:58;102241.94;;;-3.84;66.47
6778;BME280;3426;52.244;10.534;2022-12-18T00:56:25;102237.31;;;-3.66;66.67
6778;BME280;3426;52.244;10.534;2022-12-18T00:58:52;102248.81;;;-4.40;67.89
6778;BME280;3426;52.244;10.534;2022-12-18T01:01:18;102255.16;;;-4.58;68.67
6778;BME280;3426;52.244;10.534;2022-12-18T01:03:46;102250.81;;;-4.32;68.78
6778;BME280;3426;52.244;10.534;2022-12-18T01:06:14;102256.91;;;-4.03;67.14
6778;BME280;3426;52.244;10.534;2022-12-18T01:08:40;102259.31;;;-4.61;68.19
6778;BME280;3426;52.244;10.534;2022-12-18T01:11:09;102262.00;;;-5.33;70.52
6778;BME280;3426;52.244;10.534;2022-12-18T01:13:36;102261.09;;;-4.86;69.38
6778;BME280;3426;52.244;10.534;2022-12-18T01:16:03;102258.75;;;-4.78;69.32
6778;BME280;3426;52.244;10.534;2022-12-18T01:18:29;102257.34;;;-4.43;67.78
6778;BME280;3426;52.244;10.534;2022-12-18T01:20:56;102258.75;;;-4.78;68.00
6778;BME280;3426;52.244;10.534;2022-12-18T01:23:23;102265.31;;;-4.62;67.92
6778;BME280;3426;52.244;10.534;2022-12-18T01:25:52;102263.63;;;-4.62;67.63
6778;BME280;3426;52.244;10.534;2022-12-18T01:28:18;102259.59;;;-4.79;68.59
6778;BME280;3426;52.244;10.534;2022-12-18T01:30:45;102269.59;;;-4.88;68.59
6778;BME280;3426;52.244;10.534;2022-12-18T01:33:11;102272.41;;;-5.06;69.23
6778;BME280;3426;52.244;10.534;2022-12-18T01:35:42;102274.50;;;-4.96;69.02
6778;BME280;3426;52.244;10.534;2022-12-18T01:38:09;102274.47;;;-4.72;69.04
6778;BME280;3426;52.244;10.534;2022-12-18T01:40:36;102269.19;;;-4.49;68.82
6778;BME280;3426;52.244;10.534;2022-12-18T01:43:02;102279.16;;;-4.60;68.44
6778;BME280;3426;52.244;10.534;2022-12-18T01:45:31;102275.19;;;-4.50;68.22
6778;BME280;3426;52.244;10.534;2022-12-18T01:48:04;102281.31;;;-4.74;67.80
6778;BME280;3426;52.244;10.534;2022-12-18T01:50:36;102281.56;;;-4.41;67.67
6778;BME280;3426;52.244;10.534;2022-12-18T01:53:11;102267.38;;;-4.77;68.01
6778;BME280;3426;52.244;10.534;2022-12-18T01:58:14;102271.53;;;-4.57;68.35
6778;BME280;3426;52.244;10.534;2022-12-18T02:00:41;102278.13;;;-4.40;67.04
6778;BME280;3426;52.244;10.534;2022-12-18T02:03:08;102281.75;;;-4.86;68.58
6778;BME280;3426;52.244;10.534;2022-12-18T02:18:58;102264.44;;;-4.88;69.18
6778;BME280;3426;52.244;10.534;2022-12-18T02:24:51;102273.88;;;-4.65;68.04
6778;BME280;3426;52.244;10.534;2022-12-18T02:27:20;102283.63;;;-5.06;68.16
6778;BME280;3426;52.244;10.534;2022-12-18T02:29:53;102280.91;;;-5.10;69.64
6778;BME280;3426;52.244;10.534;2022-12-18T02:32:37;102273.03;;;-5.13;69.81
6778;BME280;3426;52.244;10.534;2022-12-18T02:35:07;102270.28;;;-5.18;69.92
6778;BME280;3426;52.244;10.534;2022-12-18T02:37:35;102268.78;;;-5.35;70.02
6778;BME280;3426;52.244;10.534;2022-12-18T02:40:04;102265.53;;;-4.82;68.65
6778;BME280;3426;52.244;10.534;2022-12-18T02:42:31;102263.63;;;-4.62;67.95
6778;BME280;3426;52.244;10.534;2022-12-18T02:44:58;102271.00;;;-4.72;68.10
6778;BME280;3426;52.244;10.534;2022-12-18T02:47:31;102264.53;;;-4.85;68.68
6778;BME280;3426;52.244;10.534;2022-12-18T02:55:23;102275.72;;;-4.61;68.02
6778;BME280;3426;52.244;10.534;2022-12-18T02:57:54;102274.66;;;-4.66;68.03
6778;BME280;3426;52.244;10.534;2022-12-18T03:00:29;102276.78;;;-4.80;68.36
6778;BME280;3426;52.244;10.534;2022-12-18T03:05:36;102283.81;;;-4.50;66.81
6778;BME280;3426;52.244;10.534;2022-12-18T03:08:12;102279.75;;;-4.69;67.75
6778;BME280;3426;52.244;10.534;2022-12-18T03:10:56;102273.00;;;-4.89;67.71
6778;BME280;3426;52.244;10.534;2022-12-18T03:13:37;102278.97;;;-4.41;67.24
6778;BME280;3426;52.244;10.534;2022-12-18T03:16:10;102274.53;;;-4.45;67.21
6778;BME280;3426;52.244;10.534;2022-12-18T03:18:48;102273.63;;;-4.71;67.24
6778;BME280;3426;52.244;10.534;2022-12-18T03:21:20;102274.22;;;-4.80;67.71
6778;BME280;3426;52.244;10.534;2022-12-18T03:23:50;102277.38;;;-4.63;67.46
6778;BME280;3426;52.244;10.534;2022-12-18T03:26:21;102276.13;;;-4.74;66.97
6778;BME280;3426;52.244;10.534;2022-12-18T03:28:54;102277.41;;;-5.11;68.04
6778;BME280;3426;52.244;10.534;2022-12-18T03:31:25;102272.47;;;-4.81;67.18
6778;BME280;3426;52.244;10.534;2022-12-18T03:33:56;102270.34;;;-4.67;67.50
6778;BME280;3426;52.244;10.534;2022-12-18T03:36:24;102277.31;;;-4.39;66.18
6778;BME280;3426;52.244;10.534;2022-12-18T03:38:51;102269.53;;;-4.39;65.84
6778;BME280;3426;52.244;10.534;2022-12-18T03:41:27;102264.66;;;-4.57;67.07
6778;BME280;3426;52.244;10.534;2022-12-18T03:44:14;102265.88;;;-4.71;66.83
6778;BME280;3426;52.244;10.534;2022-12-18T03:46:52;102273.00;;;-4.38;66.07
6778;BME280;3426;52.244;10.534;2022-12-18T03:49:27;102264.75;;;-4.79;66.74
6778;BME280;3426;52.244;10.534;2022-12-18T03:52:06;102266.91;;;-4.40;65.27
6778;BME280;3426;52.244;10.534;2022-12-18T03:54:36;102264.22;;;-4.43;64.74
6778;BME280;3426;52.244;10.534;2022-12-18T03:57:10;102264.38;;;-4.39;65.30
6778;BME280;3426;52.244;10.534;2022-12-18T03:59:39;102262.25;;;-4.50;65.09
6778;BME280;3426;52.244;10.534;2022-12-18T04:02:07;102271.88;;;-4.72;65.89
6778;BME280;3426;52.244;10.534;2022-12-18T04:04:37;102274.03;;;-5.10;67.08
6778;BME280;3426;52.244;10.534;2022-12-18T04:07:05;102275.34;;;-5.21;67.77
6778;BME280;3426;52.244;10.534;2022-12-18T04:09:33;102267.22;;;-5.08;66.59
6778;BME280;3426;52.244;10.534;2022-12-18T04:12:00;102258.59;;;-5.32;68.13
6778;BME280;3426;52.244;10.534;2022-12-18T04:14:26;102253.03;;;-5.19;68.44
6778;BME280;3426;52.244;10.534;2022-12-18T04:16:56;102255.94;;;-5.10;67.49
6778;BME280;3426;52.244;10.534;2022-12-18T04:19:22;102248.31;;;-4.81;66.73
6778;BME280;3426;52.244;10.534;2022-12-18T04:21:49;102258.03;;;-4.74;67.13
6778;BME280;3426;52.244;10.534;2022-12-18T04:24:15;102256.91;;;-4.82;66.08
6778;BME280;3426;52.244;10.534;2022-12-18T04:26:42;102263.56;;;-4.89;66.78
6778;BME280;3426;52.244;10.534;2022-12-18T04:29:08;102270.28;;;-5.18;67.01
6778;BME280;3426;52.244;10.534;2022-12-18T04:31:35;102265.44;;;-5.09;66.67
6778;BME280;3426;52.244;10.534;2022-12-18T04:34:01;102283.63;;;-5.06;66.57
6778;BME280;3426;52.244;10.534;2022-12-18T04:36:27;102280.16;;;-4.82;66.03
6778;BME280;3426;52.244;10.534;2022-12-18T04:38:54;102273.50;;;-4.99;65.74
6778;BME280;3426;52.244;10.534;2022-12-18T04:41:21;102277.72;;;-5.03;65.82
6778;BME280;3426;52.244;10.534;2022-12-18T04:43:47;102279.88;;;-4.90;65.67
6778;BME280;3426;52.244;10.534;2022-12-18T04:46:14;102286.75;;;-4.90;65.65
6778;BME280;3426;52.244;10.534;2022-12-18T04:48:41;102275.06;;;-5.28;66.58
6778;BME280;3426;52.244;10.534;2022-12-18T04:51:07;102284.66;;;-5.48;67.68
6778;BME280;3426;52.244;10.534;2022-12-18T04:53:34;102275.63;;;-5.37;67.78
6778;BME280;3426;52.244;10.534;2022-12-18T04:56:09;102279.81;;;-5.39;66.89
6778;BME280;3426;52.244;10.534;2022-12-18T04:58:38;102278.75;;;-5.22;66.83
6778;BME280;3426;52.244;10.534;2022-12-18T05:01:05;102272.59;;;-5.49;67.88
6778;BME280;3426;52.244;10.534;2022-12-18T05:03:34;102260.59;;;-5.47;68.45
6778;BME280;3426;52.244;10.534;2022-12-18T05:06:02;102262.91;;;-5.07;67.28
6778;BME280;3426;52.244;10.534;2022-12-18T05:08:28;102265.16;;;-5.16;67.43
6778;BME280;3426;52.244;10.534;2022-12-18T05:11:02;102257.28;;;-5.21;67.37
6778;BME280;3426;52.244;10.534;2022-12-18T05:13:31;102254.25;;;-5.33;68.52
6778;BME280;3426;52.244;10.534;2022-12-18T05:15:58;102247.91;;;-5.17;67.44
6778;BME280;3426;52.244;10.534;2022-12-18T05:18:25;102245.13;;;-5.47;67.88
6778;BME280;3426;52.244;10.534;2022-12-18T05:20:52;102245.22;;;-4.96;67.21
6778;BME280;3426;52.244;10.534;2022-12-18T05:23:20;102256.22;;;-4.76;66.08
6778;BME280;3426;52.244;10.534;2022-12-18T05:25:55;102265.38;;;-4.61;65.34
6778;BME280;3426;52.244;10.534;2022-12-18T05:28:23;102269.09;;;-4.78;66.35
6778;BME280;3426;52.244;10.534;2022-12-18T05:30:56;102263.97;;;-4.76;65.89
6778;BME280;3426;52.244;10.534;2022-12-18T05:33:24;102261.09;;;-4.86;66.27
6778;BME280;3426;52.244;10.534;2022-12-18T05:35:56;102259.13;;;-4.93;65.46
6778;BME280;3426;52.244;10.534;2022-12-18T05:38:25;102267.41;;;-5.01;66.23
6778;BME280;3426;52.244;10.534;2022-12-18T05:40:52;102270.72;;;-5.76;67.88
6778;BME280;3426;52.244;10.534;2022-12-18T05:43:19;102259.94;;;-5.66;68.12
6778;BME280;3426;52.244;10.534;2022-12-18T05:45:48;102268.13;;;-5.76;68.61
6778;BME280;3426;52.244;10.534;2022-12-18T05:48:15;102265.69;;;-5.73;68.97
6778;BME280;3426;52.244;10.534;2022-12-18T05:50:44;102262.94;;;-5.31;67.48
6778;BME280;3426;52.244;10.534;2022-12-18T05:53:16;102280.59;;;-5.42;66.69
6778;BME280;3426;52.244;10.534;2022-12-18T05:55:43;102277.88;;;-5.91;68.47
6778;BME280;3426;52.244;10.534;2022-12-18T05:58:11;102283.19;;;-5.87;69.10
6778;BME280;3426;52.244;10.534;2022-12-18T06:00:39;102286.19;;;-5.76;68.37
6778;BME280;3426;52.244;10.534;2022-12-18T06:03:07;102283.88;;;-5.92;69.06
6778;BME280;3426;52.244;10.534;2022-12-18T06:05:36;102296.34;;;-6.03;69.46
6778;BME280;3426;52.244;10.534;2022-12-18T06:08:03;102295.69;;;-5.52;68.21
6778;BME280;3426;52.244;10.534;2022-12-18T06:10:30;102306.41;;;-5.87;68.45
6778;BME280;3426;52.244;10.534;2022-12-18T06:12:57;102313.41;;;-5.62;67.79
6778;BME280;3426;52.244;10.534;2022-12-18T06:15:23;102312.00;;;-5.98;69.21
6778;BME280;3426;52.244;10.534;2022-12-18T06:17:50;102322.66;;;-6.11;70.08
6778;BME280;3426;52.244;10.534;2022-12-18T06:20:17;102314.31;;;-6.27;70.56
6778;BME280;3426;52.244;10.534;2022-12-18T06:22:43;102322.34;;;-5.98;70.81
6778;BME280;3426;52.244;10.534;2022-12-18T06:25:10;102320.91;;;-5.68;69.12
6778;BME280;3426;52.244;10.534;2022-12-18T06:27:37;102329.38;;;-5.94;68.91
6778;BME280;3426;52.244;10.534;2022-12-18T06:30:04;102335.03;;;-6.03;69.37
6778;BME280;3426;52.244;10.534;2022-12-18T06:32:31;102328.31;;;-5.77;68.18
6778;BME280;3426;52.244;10.534;2022-12-18T06:34:57;102335.09;;;-5.79;68.50
6778;BME280;3426;52.244;10.534;2022-12-18T06:37:23;102334.25;;;-6.23;69.93
6778;BME280;3426;52.244;10.534;2022-12-18T06:39:53;102327.38;;;-6.22;70.01
6778;BME280;3426;52.244;10.534;2022-12-18T06:42:20;102332.47;;;-5.80;69.06
6778;BME280;3426;52.244;10.534;2022-12-18T06:44:49;102330.50;;;-6.08;69.98
6778;BME280;3426;52.244;10.534;2022-12-18T06:47:16;102314.19;;;-5.64;69.50
6778;BME280;3426;52.244;10.534;2022-12-18T06:49:42;102319.47;;;-5.83;68.43
6778;BME280;3426;52.244;10.534;2022-12-18T06:52:09;102320.78;;;-6.16;70.16
6778;BME280;3426;52.244;10.534;2022-12-18T06:54:35;102316.28;;;-5.54;67.96
6778;BME280;3426;52.244;10.534;2022-12-18T06:57:02;102329.00;;;-5.81;68.37
6778;BME280;3426;52.244;10.534;2022-12-18T06:59:28;102332.94;;;-5.68;67.90
6778;BME280;3426;52.244;10.534;2022-12-18T07:01:55;102336.13;;;-5.53;67.37
6778;BME280;3426;52.244;10.534;2022-12-18T07:04:22;102342.38;;;-5.91;67.42
6778;BME280;3426;52.244;10.534;2022-12-18T07:06:48;102338.19;;;-5.67;67.91
6778;BME280;3426;52.244;10.534;2022-12-18T07:09:15;102344.72;;;-5.52;66.96
6778;BME280;3426;52.244;10.534;2022-12-18T07:11:41;102335.59;;;-5.44;66.58
6778;BME280;3426;52.244;10.534;2022-12-18T07:14:07;102333.75;;;-5.47;66.26
6778;BME280;3426;52.244;10.534;2022-12-18T07:16:34;102326.47;;;-5.79;67.16
6778;BME280;3426;52.244;10.534;2022-12-18T07:19:00;102327.03;;;-5.66;66.73
6778;BME280;3426;52.244;10.534;2022-12-18T07:21:27;102335.00;;;-5.37;65.70
6778;BME280;3426;52.244;10.534;2022-12-18T07:23:53;102334.63;;;-5.24;65.31
6778;BME280;3426;52.244;10.534;2022-12-18T07:26:21;102340.41;;;-5.53;66.82
6778;BME280;3426;52.244;10.534;2022-12-18T07:28:48;102348.50;;;-5.44;66.48
6778;BME280;3426;52.244;10.534;2022-12-18T07:31:18;102350.03;;;-5.03;65.99
6778;BME280;3426;52.244;10.534;2022-12-18T07:33:47;102369.34;;;-4.69;64.71
6778;BME280;3426;52.244;10.534;2022-12-18T07:36:14;102378.47;;;-4.79;65.06
6778;BME280;3426;52.244;10.534;2022-12-18T07:38:40;102369.72;;;-4.59;64.36
6778;BME280;3426;52.244;10.534;2022-12-18T07:41:09;102381.50;;;-4.67;64.62
6778;BME280;3426;52.244;10.534;2022-12-18T07:43:36;102371.75;;;-4.74;64.20
6778;BME280;3426;52.244;10.534;2022-12-18T07:46:05;102389.81;;;-4.75;64.16
6778;BME280;3426;52.244;10.534;2022-12-18T07:48:32;102392.00;;;-4.86;64.50
6778;BME280;3426;52.244;10.534;2022-12-18T07:51:04;102387.91;;;-5.03;64.61
6778;BME280;3426;52.244;10.534;2022-12-18T07:53:32;102391.31;;;-5.04;65.20
6778;BME280;3426;52.244;10.534;2022-12-18T07:56:00;102394.97;;;-4.75;64.75
6778;BME280;3426;52.244;10.534;2022-12-18T07:58:48;102406.41;;;-4.69;64.72
6778;BME280;3426;52.244;10.534;2022-12-18T08:01:14;102408.69;;;-5.00;65.32
6778;BME280;3426;52.244;10.534;2022-12-18T08:03:41;102423.63;;;-5.38;67.05
6778;BME280;3426;52.244;10.534;2022-12-18T08:06:09;102413.84;;;-5.00;66.97
6778;BME280;3426;52.244;10.534;2022-12-18T08:08:35;102407.00;;;-4.52;65.93
6778;BME280;3426;52.244;10.534;2022-12-18T08:11:03;102410.25;;;-4.58;64.67
6778;BME280;3426;52.244;10.534;2022-12-18T08:13:29;102406.19;;;-4.51;64.56
6778;BME280;3426;52.244;10.534;2022-12-18T08:15:57;102402.34;;;-4.62;65.46
6778;BME280;3426;52.244;10.534;2022-12-18T08:18:24;102399.31;;;-4.50;64.65
6778;BME280;3426;52.244;10.534;2022-12-18T08:20:51;102394.94;;;-4.99;65.82
6778;BME280;3426;52.244;10.534;2022-12-18T08:23:18;102387.53;;;-4.66;65.10
6778;BME280;3426;52.244;10.534;2022-12-18T08:25:44;102376.50;;;-4.86;66.47
6778;BME280;3426;52.244;10.534;2022-12-18T08:28:11;102372.81;;;-3.92;64.98
6778;BME280;3426;52.244;10.534;2022-12-18T08:30:37;102364.19;;;-3.37;62.67
6778;BME280;3426;52.244;10.534;2022-12-18T08:33:04;102365.09;;;-3.64;62.07
6778;BME280;3426;52.244;10.534;2022-12-18T08:35:34;102356.25;;;-2.52;59.75
6778;BME280;3426;52.244;10.534;2022-12-18T08:38:06;102355.75;;;-2.70;59.62
6778;BME280;3426;52.244;10.534;2022-12-18T08:40:32;102354.09;;;-2.35;56.83
6778;BME280;3426;52.244;10.534;2022-12-18T08:42:59;102348.31;;;-1.90;56.11
6778;BME280;3426;52.244;10.534;2022-12-18T08:45:44;102342.31;;;-0.65;53.43
6778;BME280;3426;52.244;10.534;2022-12-18T08:48:10;102349.00;;;-0.31;51.42
6778;BME280;3426;52.244;10.534;2022-12-18T08:50:37;102346.63;;;0.36;50.47
6778;BME280;3426;52.244;10.534;2022-12-18T08:53:03;102332.56;;;0.85;49.66
6778;BME280;3426;52.244;10.534;2022-12-18T08:55:30;102336.94;;;1.68;46.86
6778;BME280;3426;52.244;10.534;2022-12-18T08:57:56;102337.94;;;1.00;47.68
6778;BME280;3426;52.244;10.534;2022-12-18T09:00:23;102331.66;;;0.85;47.17
6778;BME280;3426;52.244;10.534;2022-12-18T09:02:49;102327.22;;;0.77;47.91
6778;BME280;3426;52.244;10.534;2022-12-18T09:05:16;102338.53;;;0.78;49.48
6778;BME280;3426;52.244;10.534;2022-12-18T09:07:42;102339.16;;;0.62;48.67
6778;BME280;3426;52.244;10.534;2022-12-18T09:10:10;102329.63;;;2.34;45.99
6778;BME280;3426;52.244;10.534;2022-12-18T09:12:36;102321.09;;;2.67;44.10
6778;BME280;3426;52.244;10.534;2022-12-18T09:15:03;102320.47;;;3.38;43.42
6778;BME280;3426;52.244;10.534;2022-12-18T09:17:29;102307.00;;;2.44;44.19
6778;BME280;3426;52.244;10.534;2022-12-18T09:19:56;102317.31;;;2.18;45.19
6778;BME280;3426;52.244;10.534;2022-12-18T09:22:22;102306.34;;;2.86;44.11
6778;BME280;3426;52.244;10.534;2022-12-18T09:24:49;102315.41;;;1.97;45.26
6778;BME280;3426;52.244;10.534;2022-12-18T09:27:15;102313.13;;;1.38;47.65
6778;BME280;3426;52.244;10.534;2022-12-18T09:29:42;102309.56;;;1.29;48.25
6778;BME280;3426;52.244;10.534;2022-12-18T09:32:08;102305.47;;;0.74;48.87
6778;BME280;3426;52.244;10.534;2022-12-18T09:34:35;102301.94;;;0.73;48.71
6778;BME280;3426;52.244;10.534;2022-12-18T09:37:01;102300.59;;;1.06;48.39
6778;BME280;3426;52.244;10.534;2022-12-18T09:39:28;102296.50;;;0.55;50.45
6778;BME280;3426;52.244;10.534;2022-12-18T09:41:56;102300.88;;;1.30;47.93
6778;BME280;3426;52.244;10.534;2022-12-18T09:44:30;102287.41;;;1.80;47.42
6778;BME280;3426;52.244;10.534;2022-12-18T09:47:18;102285.06;;;2.20;46.51
6778;BME280;3426;52.244;10.534;2022-12-18T09:49:49;102292.09;;;1.22;47.95
6778;BME280;3426;52.244;10.534;2022-12-18T09:52:26;102277.69;;;1.64;48.08
6778;BME280;3426;52.244;10.534;2022-12-18T09:55:00;102284.00;;;0.30;50.50
6778;BME280;3426;52.244;10.534;2022-12-18T09:57:29;102290.31;;;-0.64;53.81
6778;BME280;3426;52.244;10.534;2022-12-18T10:00:28;102283.34;;;-0.66;54.13
6778;BME280;3426;52.244;10.534;2022-12-18T10:02:59;102286.38;;;-0.90;54.99
6778;BME280;3426;52.244;10.534;2022-12-18T10:05:36;102288.63;;;-1.07;56.16
6778;BME280;3426;52.244;10.534;2022-12-18T10:08:17;102299.97;;;-1.03;56.42
6778;BME280;3426;52.244;10.534;2022-12-18T10:10:57;102293.41;;;-1.28;57.85
6778;BME280;3426;52.244;10.534;2022-12-18T10:16:06;102298.63;;;-1.68;58.16
6778;BME280;3426;52.244;10.534;2022-12-18T10:21:38;102298.09;;;-1.53;58.60
6778;BME280;3426;52.244;10.534;2022-12-18T10:24:24;102303.09;;;-1.20;57.94
6778;BME280;3426;52.244;10.534;2022-12-18T10:26:56;102322.59;;;-1.79;59.92
6778;BME280;3426;52.244;10.534;2022-12-18T10:29:25;102324.22;;;-1.83;60.11
6778;BME280;3426;52.244;10.534;2022-12-18T10:31:52;102330.44;;;-1.39;59.18
6778;BME280;3426;52.244;10.534;2022-12-18T10:34:18;102328.22;;;-0.76;57.99
6778;BME280;3426;52.244;10.534;2022-12-18T10:36:47;102317.38;;;-0.99;57.83
6778;BME280;3426;52.244;10.534;2022-12-18T10:39:19;102311.28;;;-0.56;57.63
6778;BME280;3426;52.244;10.534;2022-12-18T10:41:45;102314.25;;;-0.82;58.50
6778;BME280;3426;52.244;10.534;2022-12-18T10:44:20;102295.16;;;-0.84;57.92
6778;BME280;3426;52.244;10.534;2022-12-18T10:46:49;102314.69;;;-1.02;58.87
6778;BME280;3426;52.244;10.534;2022-12-18T10:49:28;102304.44;;;-0.96;59.02
6778;BME280;3426;52.244;10.534;2022-12-18T10:52:17;102303.16;;;-1.17;60.05
6778;BME280;3426;52.244;10.534;2022-12-18T10:54:59;102304.19;;;-1.51;61.00
6778;BME280;3426;52.244;10.534;2022-12-18T10:57:37;102293.16;;;-1.39;61.45
6778;BME280;3426;52.244;10.534;2022-12-18T11:00:29;102281.81;;;-1.44;61.63
6778;BME280;3426;52.244;10.534;2022-12-18T11:02:56;102278.72;;;-1.25;61.78
6778;BME280;3426;52.244;10.534;2022-12-18T11:05:32;102281.19;;;-0.89;61.12
6778;BME280;3426;52.244;10.534;2022-12-18T11:08:00;102276.97;;;-0.82;60.79
6778;BME280;3426;52.244;10.534;2022-12-18T11:10:32;102269.34;;;-0.73;60.79
6778;BME280;3426;52.244;10.534;2022-12-18T11:13:22;102270.63;;;-0.48;59.98
6778;BME280;3426;52.244;10.534;2022-12-18T11:15:50;102268.78;;;-0.55;60.65
6778;BME280;3426;52.244;10.534;2022-12-18T11:18:26;102260.91;;;-0.58;62.09
6778;BME280;3426;52.244;10.534;2022-12-18T11:21:00;102253.16;;;-0.01;59.83
6778;BME280;3426;52.244;10.534;2022-12-18T11:23:31;102243.84;;;0.17;58.88
6778;BME280;3426;52.244;10.534;2022-12-18T11:26:03;102243.41;;;-0.15;59.93
6778;BME280;3426;52.244;10.534;2022-12-18T11:31:26;102237.84;;;-0.37;61.22
6778;BME280;3426;52.244;10.534;2022-12-18T11:34:10;102244.25;;;-0.16;60.46
6778;BME280;3426;52.244;10.534;2022-12-18T11:36:55;102229.69;;;-0.05;59.80
6778;BME280;3426;52.244;10.534;2022-12-18T11:39:33;102224.88;;;0.25;59.09
6778;BME280;3426;52.244;10.534;2022-12-18T11:42:21;102229.78;;;0.03;60.13
6778;BME280;3426;52.244;10.534;2022-12-18T11:44:53;102249.50;;;-0.66;61.57
6778;BME280;3426;52.244;10.534;2022-12-18T11:47:29;102258.25;;;-0.08;60.46
6778;BME280;3426;52.244;10.534;2022-12-18T11:50:01;102254.88;;;-0.03;60.15
6778;BME280;3426;52.244;10.534;2022-12-18T11:52:38;102256.91;;;0.18;59.53
6778;BME280;3426;52.244;10.534;2022-12-18T11:55:19;102249.22;;;-0.32;60.90
6778;BME280;3426;52.244;10.534;2022-12-18T12:00:42;102254.09;;;0.05;60.26
6778;BME280;3426;52.244;10.534;2022-12-18T12:11:13;102234.78;;;0.54;59.38
6778;BME280;3426;52.244;10.534;2022-12-18T12:16:29;102215.88;;;0.01;59.95
6778;BME280;3426;52.244;10.534;2022-12-18T12:21:49;102210.91;;;0.20;59.98
6778;BME280;3426;52.244;10.534;2022-12-18T12:29:56;102189.75;;;0.66;59.21
6778;BME280;3426;52.244;10.534;2022-12-18T12:38:09;102170.97;;;0.21;60.80
6778;BME280;3426;52.244;10.534;2022-12-18T12:40:43;102167.75;;;0.41;60.45
6778;BME280;3426;52.244;10.534;2022-12-18T12:43:25;102160.66;;;0.31;60.94
6778;BME280;3426;52.244;10.534;2022-12-18T12:45:58;102159.66;;;0.19;61.90
6778;BME280;3426;52.244;10.534;2022-12-18T12:48:48;102160.31;;;0.77;60.99
6778;BME280;3426;52.244;10.534;2022-12-18T12:51:19;102170.75;;;0.76;60.39
6778;BME280;3426;52.244;10.534;2022-12-18T12:53:47;102158.44;;;0.63;60.69
6778;BME280;3426;52.244;10.534;2022-12-18T12:56:16;102150.38;;;0.41;61.73
6778;BME280;3426;52.244;10.534;2022-12-18T12:59:13;102149.13;;;0.10;63.02
6778;BME280;3426;52.244;10.534;2022-12-18T13:15:42;102121.25;;;0.82;60.45
6778;BME280;3426;52.244;10.534;2022-12-18T13:18:20;102098.97;;;1.21;59.34
6778;BME280;3426;52.244;10.534;2022-12-18T13:31:58;102119.75;;;1.13;58.80
6778;BME280;3426;52.244;10.534;2022-12-18T13:34:21;102125.03;;;1.16;58.25
6778;BME280;3426;52.244;10.534;2022-12-18T13:36:55;102108.22;;;0.84;58.91
6778;BME280;3426;52.244;10.534;2022-12-18T13:39:32;102116.75;;;0.66;58.83
6778;BME280;3426;52.244;10.534;2022-12-18T13:44:38;102120.78;;;-0.34;61.63
6778;BME280;3426;52.244;10.534;2022-12-18T13:49:56;102117.84;;;0.09;60.90
6778;BME280;3426;52.244;10.534;2022-12-18T13:52:28;102115.91;;;0.68;58.65
6778;BME280;3426;52.244;10.534;2022-12-18T13:55:02;102116.25;;;0.21;59.67
6778;BME280;3426;52.244;10.534;2022-12-18T13:57:34;102119.97;;;0.42;59.91
6778;BME280;3426;52.244;10.534;2022-12-18T14:00:24;102125.31;;;-0.17;60.61
6778;BME280;3426;52.244;10.534;2022-12-18T14:02:51;102123.84;;;0.03;59.99
6778;BME280;3426;52.244;10.534;2022-12-18T14:05:36;102119.91;;;-0.33;61.17
6778;BME280;3426;52.244;10.534;2022-12-18T14:08:10;102111.97;;;-0.40;61.96
6778;BME280;3426;52.244;10.534;2022-12-18T14:10:41;102109.50;;;-0.33;61.31
6778;BME280;3426;52.244;10.534;2022-12-18T14:13:39;102123.00;;;-0.58;62.63
6778;BME280;3426;52.244;10.534;2022-12-18T14:16:05;102121.50;;;-0.42;61.89
6778;BME280;3426;52.244;10.534;2022-12-18T14:18:52;102112.75;;;-0.49;61.86
6778;BME280;3426;52.244;10.534;2022-12-18T14:21:30;102125.13;;;-0.90;62.59
6778;BME280;3426;52.244;10.534;2022-12-18T14:24:16;102115.00;;;-0.70;61.80
6778;BME280;3426;52.244;10.534;2022-12-18T14:26:46;102104.44;;;-0.81;62.21
6778;BME280;3426;52.244;10.534;2022-12-18T14:29:24;102118.97;;;-0.94;61.89
6778;BME280;3426;52.244;10.534;2022-12-18T14:34:30;102112.63;;;-1.13;63.17
6778;BME280;3426;52.244;10.534;2022-12-18T14:36:57;102118.41;;;-1.27;63.28
6778;BME280;3426;52.244;10.534;2022-12-18T14:39:23;102117.47;;;-0.80;62.44
6778;BME280;3426;52.244;10.534;2022-12-18T14:41:52;102111.78;;;-1.10;62.90
6778;BME280;3426;52.244;10.534;2022-12-18T14:44:19;102122.00;;;-1.19;63.35
6778;BME280;3426;52.244;10.534;2022-12-18T14:46:49;102099.47;;;-1.20;63.16
6778;BME280;3426;52.244;10.534;2022-12-18T14:51:52;102102.19;;;-1.61;64.48
6778;BME280;3426;52.244;10.534;2022-12-18T14:54:20;102100.56;;;-1.56;64.69
6778;BME280;3426;52.244;10.534;2022-12-18T14:56:51;102094.53;;;-1.53;63.70
6778;BME280;3426;52.244;10.534;2022-12-18T14:59:28;102087.88;;;-1.41;63.76